createdAt,value
2022-08-05T00:00:46.467Z,44.54
2022-08-05T00:03:16.748Z,43.93
2022-08-05T00:06:05.365Z,44.05
2022-08-05T00:08:34.664Z,44.34
2022-08-05T00:11:20.550Z,44.16
2022-08-05T00:13:57.229Z,44.23
2022-08-05T00:16:36.582Z,44.72
2022-08-05T00:19:10.356Z,44.26
2022-08-05T00:21:37.005Z,44.29
2022-08-05T00:24:09.905Z,44.06
2022-08-05T00:26:38.219Z,44.69
2022-08-05T00:29:04.878Z,44.95
2022-08-05T00:31:53.427Z,44.78
2022-08-05T00:34:56.560Z,44.27
2022-08-05T00:37:11.022Z,45.09
2022-08-05T00:39:44.155Z,44.76
2022-08-05T00:42:35.451Z,44.83
2022-08-05T00:45:05.448Z,44.97
2022-08-05T00:47:57.386Z,45.16
2022-08-05T00:50:25.235Z,45.16
2022-08-05T00:52:55.169Z,45.16
2022-08-05T00:55:23.174Z,45.51
2022-08-05T00:58:11.089Z,45.48
2022-08-05T01:00:39.006Z,45.50
2022-08-05T01:03:07.579Z,45.47
2022-08-05T01:05:34.911Z,46.14
2022-08-05T01:08:41.054Z,46.14
2022-08-05T01:10:56.551Z,45.69
2022-08-05T01:13:57.390Z,45.46
2022-08-05T01:16:45.292Z,45.63
2022-08-05T01:20:01.915Z,45.17
2022-08-05T01:22:59.689Z,45.63
2022-08-05T01:26:01.835Z,45.60
2022-08-05T01:28:57.046Z,45.27
2022-08-05T01:31:42.585Z,45.46
2022-08-05T01:34:14.566Z,45.36
2022-08-05T01:36:49.232Z,45.67
2022-08-05T01:39:36.085Z,45.61
2022-08-05T01:42:06.800Z,45.35
2022-08-05T01:44:37.884Z,45.08
2022-08-05T01:47:05.233Z,45.06
2022-08-05T01:50:00.279Z,45.38
2022-08-05T01:52:25.353Z,44.90
2022-08-05T01:54:56.958Z,44.83
2022-08-05T01:58:09.265Z,44.98
2022-08-05T02:00:15.430Z,45.03
2022-08-05T02:02:54.293Z,44.90
2022-08-05T02:05:25.290Z,45.14
2022-08-05T02:07:57.830Z,45.20
2022-08-05T02:10:31.035Z,45.06
2022-08-05T02:13:17.699Z,44.90
2022-08-05T02:15:50.259Z,44.76
2022-08-05T02:18:36.331Z,45.14
2022-08-05T02:21:25.056Z,44.79
2022-08-05T02:23:55.290Z,44.97
2022-08-05T02:26:38.076Z,44.74
2022-08-05T02:29:17.318Z,44.82
2022-08-05T02:31:50.826Z,44.66
2022-08-05T02:34:19.958Z,44.90
2022-08-05T02:36:54.413Z,44.82
2022-08-05T02:39:23.100Z,44.63
2022-08-05T02:42:00.541Z,45.10
2022-08-05T02:44:30.275Z,44.74
2022-08-05T02:47:00.722Z,44.87
2022-08-05T02:49:40.879Z,45.09
2022-08-05T02:52:11.434Z,44.90
2022-08-05T02:54:41.179Z,44.70
2022-08-05T02:58:10.417Z,45.09
2022-08-05T02:59:59.365Z,45.09
2022-08-05T03:02:39.028Z,44.79
2022-08-05T03:05:09.753Z,44.84
2022-08-05T03:07:59.341Z,45.17
2022-08-05T03:10:25.688Z,44.98
2022-08-05T03:12:54.233Z,45.18
2022-08-05T03:15:23.581Z,45.18
2022-08-05T03:17:54.216Z,44.81
2022-08-05T03:20:22.335Z,45.15
2022-08-05T03:22:50.588Z,45.29
2022-08-05T03:25:32.956Z,44.84
2022-08-05T03:28:09.016Z,45.06
2022-08-05T03:30:36.795Z,44.89
2022-08-05T03:33:07.416Z,44.96
2022-08-05T03:35:40.866Z,44.71
2022-08-05T03:38:12.518Z,45.08
2022-08-05T03:40:48.430Z,45.03
2022-08-05T03:44:08.972Z,44.77
2022-08-05T03:46:04.391Z,44.94
2022-08-05T03:48:35.210Z,44.96
2022-08-05T03:52:39.019Z,44.71
2022-08-05T03:55:00.424Z,44.72
2022-08-05T03:57:16.619Z,45.28
2022-08-05T03:59:54.691Z,44.74
2022-08-05T04:02:38.796Z,45.09
2022-08-05T04:05:13.018Z,44.96
2022-08-05T04:07:58.360Z,44.80
2022-08-05T04:10:33.283Z,44.96
2022-08-05T04:13:05.191Z,45.15
2022-08-05T04:15:33.265Z,44.95
2022-08-05T04:18:09.790Z,44.90
2022-08-05T04:20:37.228Z,44.81
2022-08-05T04:23:04.440Z,44.99
2022-08-05T04:25:57.651Z,44.76
2022-08-05T04:28:18.712Z,44.94
2022-08-05T04:30:46.251Z,44.80
2022-08-05T04:33:16.013Z,44.59
2022-08-05T04:36:16.039Z,44.68
2022-08-05T04:38:39.879Z,44.82
2022-08-05T04:41:09.649Z,44.76
2022-08-05T04:43:37.604Z,44.68
2022-08-05T04:46:07.232Z,44.83
2022-08-05T04:48:33.865Z,44.58
2022-08-05T04:51:01.761Z,44.67
2022-08-05T04:53:36.684Z,44.53
2022-08-05T04:56:15.419Z,44.46
2022-08-05T04:58:54.258Z,45.40
2022-08-05T05:02:07.852Z,45.58
2022-08-05T05:04:07.569Z,44.90
2022-08-05T05:06:35.979Z,45.25
2022-08-05T05:09:17.309Z,45.58
2022-08-05T05:11:54.601Z,46.07
2022-08-05T05:14:31.545Z,45.91
2022-08-05T05:17:00.408Z,45.24
2022-08-05T05:19:36.452Z,45.21
2022-08-05T05:22:24.258Z,45.61
2022-08-05T05:24:59.937Z,45.14
2022-08-05T05:27:45.767Z,45.32
2022-08-05T05:30:29.508Z,45.40
2022-08-05T05:33:00.493Z,44.96
2022-08-05T05:35:34.345Z,45.34
2022-08-05T05:38:13.237Z,44.89
2022-08-05T05:40:48.277Z,45.18
2022-08-05T05:43:22.067Z,44.53
2022-08-05T05:46:08.500Z,44.80
2022-08-05T05:48:41.849Z,44.38
2022-08-05T05:51:14.929Z,44.40
2022-08-05T05:53:54.072Z,44.56
2022-08-05T05:56:33.210Z,44.33
2022-08-05T05:59:06.498Z,44.37
2022-08-05T06:01:39.664Z,44.45
2022-08-05T06:04:08.222Z,44.09
2022-08-05T06:06:38.820Z,44.35
2022-08-05T06:09:08.997Z,43.87
2022-08-05T06:12:01.675Z,43.99
2022-08-05T06:14:34.664Z,44.33
2022-08-05T06:17:21.955Z,44.29
2022-08-05T06:19:57.190Z,44.13
2022-08-05T06:22:33.712Z,43.84
2022-08-05T06:25:59.192Z,44.35
2022-08-05T06:28:11.172Z,44.02
2022-08-05T06:30:35.175Z,43.87
2022-08-05T06:33:02.314Z,43.55
2022-08-05T06:36:06.842Z,43.77
2022-08-05T06:38:16.041Z,44.02
2022-08-05T06:40:44.626Z,43.39
2022-08-05T06:43:57.506Z,43.91
2022-08-05T06:46:06.518Z,44.13
2022-08-05T06:48:52.589Z,43.72
2022-08-05T06:51:29.474Z,43.76
2022-08-05T06:54:02.086Z,43.38
2022-08-05T06:56:29.988Z,43.65
2022-08-05T06:59:00.024Z,43.27
2022-08-05T07:01:27.648Z,43.29
2022-08-05T07:03:59.787Z,43.50
2022-08-05T07:06:27.667Z,43.58
2022-08-05T07:08:55.283Z,43.36
2022-08-05T07:11:25.554Z,43.34
2022-08-05T07:14:20.644Z,43.43
2022-08-05T07:18:02.278Z,43.15
2022-08-05T07:20:34.035Z,43.39
2022-08-05T07:22:37.713Z,43.45
2022-08-05T07:25:24.117Z,43.12
2022-08-05T07:27:58.502Z,43.25
2022-08-05T07:30:34.696Z,43.23
2022-08-05T07:33:09.263Z,43.64
2022-08-05T07:35:55.724Z,43.33
2022-08-05T07:38:26.430Z,43.12
2022-08-05T07:41:35.245Z,43.19
2022-08-05T07:43:55.076Z,43.34
2022-08-05T07:46:24.553Z,42.83
2022-08-05T07:49:02.408Z,43.43
2022-08-05T07:51:52.830Z,43.26
2022-08-05T07:54:31.684Z,43.29
2022-08-05T07:57:22.639Z,42.65
2022-08-05T07:59:50.906Z,42.93
2022-08-05T08:02:18.163Z,42.89
2022-08-05T08:04:49.494Z,43.17
2022-08-05T08:07:21.228Z,42.99
2022-08-05T08:09:49.977Z,42.95
2022-08-05T08:12:35.210Z,42.82
2022-08-05T08:15:05.475Z,42.51
2022-08-05T08:17:40.914Z,42.23
2022-08-05T08:21:00.514Z,42.03
2022-08-05T08:23:11.618Z,41.96
2022-08-05T08:26:00.768Z,42.64
2022-08-05T08:28:37.122Z,42.14
2022-08-05T08:31:06.287Z,42.30
2022-08-05T08:33:37.350Z,42.42
2022-08-05T08:36:38.670Z,41.90
2022-08-05T08:38:55.616Z,42.09
2022-08-05T08:41:26.199Z,42.12
2022-08-05T08:45:19.798Z,42.46
2022-08-05T08:47:03.069Z,41.86
2022-08-05T08:50:23.042Z,41.83
2022-08-05T08:52:25.804Z,41.93
2022-08-05T08:54:53.571Z,41.55
2022-08-05T08:57:20.425Z,41.64
2022-08-05T08:59:50.595Z,41.84
2022-08-05T09:02:26.616Z,42.28
2022-08-05T09:05:16.955Z,42.49
2022-08-05T09:07:57.561Z,42.46
2022-08-05T09:10:27.207Z,42.65
2022-08-05T09:13:04.835Z,42.02
2022-08-05T09:15:32.139Z,42.47
2022-08-05T09:18:06.323Z,42.44
2022-08-05T09:20:37.902Z,42.15
2022-08-05T09:23:19.528Z,42.52
2022-08-05T09:26:02.842Z,42.04
2022-08-05T09:28:34.240Z,42.20
2022-08-05T09:31:23.213Z,42.45
2022-08-05T09:34:01.306Z,41.98
2022-08-05T09:36:56.245Z,42.05
2022-08-05T09:39:27.573Z,42.26
2022-08-05T09:42:17.307Z,42.16
2022-08-05T09:44:52.596Z,41.51
2022-08-05T09:47:36.528Z,41.47
2022-08-05T09:50:18.231Z,41.60
2022-08-05T09:53:01.156Z,41.18
2022-08-05T09:55:57.612Z,41.38
2022-08-05T09:58:15.802Z,41.23
2022-08-05T10:01:13.281Z,41.42
2022-08-05T10:03:59.167Z,40.88
2022-08-05T10:06:31.052Z,41.36
2022-08-05T10:09:24.952Z,41.24
2022-08-05T10:11:54.579Z,41.00
2022-08-05T10:14:28.573Z,41.09
2022-08-05T10:17:36.819Z,40.69
2022-08-05T10:20:03.614Z,40.16
2022-08-05T10:22:38.419Z,41.15
2022-08-05T10:25:10.356Z,41.53
2022-08-05T10:28:13.910Z,41.58
2022-08-05T10:31:20.669Z,41.49
2022-08-05T10:33:15.307Z,42.00
2022-08-05T10:35:43.870Z,41.50
2022-08-05T10:38:13.037Z,41.95
2022-08-05T10:40:45.032Z,42.07
2022-08-05T10:43:17.918Z,41.89
2022-08-05T10:46:06.324Z,41.68
2022-08-05T10:48:52.581Z,41.86
2022-08-05T10:51:28.420Z,42.44
2022-08-05T10:53:58.363Z,41.64
2022-08-05T10:56:36.622Z,41.62
2022-08-05T10:59:12.759Z,41.64
2022-08-05T11:02:34.402Z,40.12
2022-08-05T11:05:04.123Z,40.52
2022-08-05T11:07:33.132Z,40.02
2022-08-05T11:10:27.670Z,40.64
2022-08-05T11:12:58.306Z,40.40
2022-08-05T11:16:00.192Z,39.60
2022-08-05T11:18:34.970Z,38.14
2022-08-05T11:21:06.238Z,39.42
2022-08-05T11:24:04.751Z,40.80
2022-08-05T11:26:40.448Z,40.97
2022-08-05T11:29:42.130Z,41.57
2022-08-05T11:32:29.732Z,41.55
2022-08-05T11:34:57.446Z,42.05
2022-08-05T11:38:28.001Z,41.78
2022-08-05T11:41:14.045Z,41.96
2022-08-05T11:44:11.522Z,42.19
2022-08-05T11:46:58.086Z,42.24
2022-08-05T11:49:35.029Z,42.10
2022-08-05T11:52:08.794Z,42.35
2022-08-05T11:54:40.318Z,42.31
2022-08-05T11:57:24.358Z,42.10
2022-08-05T11:59:52.496Z,41.97
2022-08-05T12:02:31.898Z,41.71
2022-08-05T12:05:06.983Z,40.03
2022-08-05T12:08:03.577Z,39.64
2022-08-05T12:10:39.005Z,39.31
2022-08-05T12:13:16.659Z,39.70
2022-08-05T12:15:49.975Z,39.66
2022-08-05T12:18:32.635Z,39.23
2022-08-05T12:21:13.505Z,37.84
2022-08-05T12:23:55.017Z,38.18
2022-08-05T12:26:23.134Z,39.06
2022-08-05T12:28:51.207Z,39.24
2022-08-05T12:31:28.072Z,40.05
2022-08-05T12:34:04.746Z,39.90
2022-08-05T12:36:32.128Z,40.95
2022-08-05T12:38:59.310Z,40.58
2022-08-05T12:41:35.264Z,40.67
2022-08-05T12:44:14.495Z,41.24
2022-08-05T12:46:56.172Z,41.09
2022-08-05T12:49:25.458Z,41.75
2022-08-05T12:52:12.082Z,41.36
2022-08-05T12:54:52.089Z,41.42
2022-08-05T12:57:19.330Z,41.12
2022-08-05T13:01:57.419Z,39.65
2022-08-05T13:02:39.839Z,39.69
2022-08-05T13:05:07.291Z,39.32
2022-08-05T13:10:21.810Z,38.52
2022-08-05T13:12:57.183Z,38.25
2022-08-05T13:15:41.829Z,38.43
2022-08-05T13:18:20.542Z,38.53
2022-08-05T13:20:49.279Z,38.06
2022-08-05T13:23:18.208Z,37.64
2022-08-05T13:25:51.854Z,38.06
2022-08-05T13:28:25.759Z,38.40
2022-08-05T13:30:53.355Z,38.14
2022-08-05T13:34:21.709Z,37.91
2022-08-05T13:36:09.148Z,38.25
2022-08-05T13:38:42.021Z,37.75
2022-08-05T13:41:11.335Z,37.71
2022-08-05T13:43:44.466Z,37.93
2022-08-05T13:46:13.553Z,37.52
2022-08-05T13:48:58.546Z,37.59
2022-08-05T13:51:36.399Z,37.47
2022-08-05T13:54:11.906Z,37.37
2022-08-05T13:56:45.407Z,37.08
2022-08-05T13:59:21.142Z,36.96
2022-08-05T14:01:56.778Z,36.89
2022-08-05T14:04:51.193Z,37.27
2022-08-05T14:07:26.148Z,37.15
2022-08-05T14:10:12.017Z,37.55
2022-08-05T14:12:38.723Z,36.96
2022-08-05T14:16:05.143Z,36.84
2022-08-05T14:17:55.030Z,37.30
2022-08-05T14:20:27.787Z,37.13
2022-08-05T14:22:54.612Z,36.69
2022-08-05T14:25:22.538Z,36.89
2022-08-05T14:27:54.628Z,36.71
2022-08-05T14:30:21.731Z,36.24
2022-08-05T14:32:48.971Z,36.43
2022-08-05T14:35:16.292Z,36.12
2022-08-05T14:37:52.154Z,36.71
2022-08-05T14:40:24.503Z,37.14
2022-08-05T14:42:51.921Z,37.67
2022-08-05T14:45:18.895Z,37.91
2022-08-05T14:48:04.116Z,38.08
2022-08-05T14:50:32.857Z,38.26
2022-08-05T14:53:02.938Z,38.12
2022-08-05T14:55:39.353Z,37.66
2022-08-05T14:58:11.553Z,37.78
2022-08-05T15:00:59.770Z,37.81
2022-08-05T15:03:33.978Z,37.66
2022-08-05T15:06:07.942Z,37.95
2022-08-05T15:09:01.279Z,38.24
2022-08-05T15:11:52.388Z,38.87
2022-08-05T15:14:20.185Z,39.14
2022-08-05T15:17:03.841Z,39.06
2022-08-05T15:19:30.875Z,39.55
2022-08-05T15:22:00.223Z,40.18
2022-08-05T15:24:28.488Z,40.48
2022-08-05T15:26:55.833Z,40.70
2022-08-05T15:29:22.828Z,40.65
2022-08-05T15:31:52.890Z,41.16
2022-08-05T15:34:33.093Z,41.19
2022-08-05T15:37:06.530Z,41.09
2022-08-05T15:41:02.074Z,41.08
2022-08-05T15:42:49.927Z,41.34
2022-08-05T15:45:14.906Z,41.39
2022-08-05T15:47:43.213Z,40.93
2022-08-05T15:50:15.454Z,41.75
2022-08-05T15:52:53.555Z,41.74
2022-08-05T15:55:25.062Z,41.56
2022-08-05T15:58:09.248Z,41.96
2022-08-05T16:00:50.319Z,41.95
2022-08-05T16:03:23.553Z,41.29
2022-08-05T16:05:52.710Z,41.54
2022-08-05T16:08:22.499Z,41.83
2022-08-05T16:10:50.771Z,41.24
2022-08-05T16:13:19.260Z,41.75
2022-08-05T16:15:51.863Z,42.09
2022-08-05T16:18:19.182Z,41.66
2022-08-05T16:20:46.388Z,41.75
2022-08-05T16:23:13.178Z,41.96
2022-08-05T16:25:40.131Z,41.52
2022-08-05T16:28:09.830Z,41.44
2022-08-05T16:30:37.288Z,41.37
2022-08-05T16:33:04.134Z,42.04
2022-08-05T16:35:32.325Z,41.73
2022-08-05T16:38:16.768Z,42.43
2022-08-05T16:40:51.858Z,42.73
2022-08-05T16:43:27.011Z,42.51
2022-08-05T16:46:06.599Z,42.05
2022-08-05T16:48:38.541Z,42.27
2022-08-05T16:51:10.149Z,41.95
2022-08-05T16:54:03.334Z,42.47
2022-08-05T16:56:29.870Z,42.48
2022-08-05T16:58:57.743Z,42.28
2022-08-05T17:01:24.757Z,42.47
2022-08-05T17:03:52.114Z,42.71
2022-08-05T17:06:19.661Z,42.71
2022-08-05T17:08:53.421Z,42.48
2022-08-05T17:11:23.348Z,42.91
2022-08-05T17:14:00.398Z,42.46
2022-08-05T17:16:35.974Z,42.79
2022-08-05T17:19:07.552Z,42.63
2022-08-05T17:21:37.403Z,42.17
2022-08-05T17:24:19.443Z,42.55
2022-08-05T17:26:58.196Z,42.21
2022-08-05T17:29:34.043Z,42.49
2022-08-05T17:32:11.184Z,42.37
2022-08-05T17:34:43.585Z,42.09
2022-08-05T17:37:29.401Z,42.77
2022-08-05T17:40:00.068Z,42.51
2022-08-05T17:42:30.183Z,42.54
2022-08-05T17:44:58.917Z,42.29
2022-08-05T17:47:27.354Z,42.81
2022-08-05T17:50:04.016Z,42.44
2022-08-05T17:52:52.698Z,42.50
2022-08-05T17:55:21.245Z,42.47
2022-08-05T17:57:50.260Z,42.73
2022-08-05T18:00:17.527Z,42.68
2022-08-05T18:02:46.791Z,42.92
2022-08-05T18:05:16.915Z,43.12
2022-08-05T18:07:44.939Z,43.18
2022-08-05T18:10:20.517Z,43.09
2022-08-05T18:12:49.024Z,43.11
2022-08-05T18:15:15.729Z,42.80
2022-08-05T18:18:00.709Z,43.10
2022-08-05T18:20:32.107Z,42.67
2022-08-05T18:23:09.475Z,43.61
2022-08-05T18:25:45.312Z,42.73
2022-08-05T18:28:16.608Z,43.01
2022-08-05T18:30:50.015Z,43.05
2022-08-05T18:33:22.749Z,43.14
2022-08-05T18:36:03.439Z,43.49
2022-08-05T18:38:35.841Z,43.61
2022-08-05T18:41:57.177Z,43.38
2022-08-05T18:43:50.311Z,43.15
2022-08-05T18:46:20.285Z,43.64
2022-08-05T18:48:53.672Z,43.25
2022-08-05T18:52:05.982Z,43.09
2022-08-05T18:54:30.900Z,43.81
2022-08-05T18:57:00.807Z,43.51
2022-08-05T18:59:43.559Z,43.73
2022-08-05T19:02:28.616Z,43.43
2022-08-05T19:05:02.057Z,43.69
2022-08-05T19:07:50.089Z,43.31
2022-08-05T19:10:28.542Z,43.70
2022-08-05T19:12:56.517Z,43.93
2022-08-05T19:15:57.717Z,43.84
2022-08-05T19:18:20.866Z,44.03
2022-08-05T19:20:53.697Z,43.76
2022-08-05T19:24:04.501Z,43.54
2022-08-05T19:26:08.545Z,43.91
2022-08-05T19:28:41.481Z,43.55
2022-08-05T19:31:13.169Z,43.96
2022-08-05T19:33:48.426Z,44.18
2022-08-05T19:36:23.151Z,44.28
2022-08-05T19:38:49.849Z,44.43
2022-08-05T19:41:16.483Z,44.16
2022-08-05T19:44:06.045Z,44.18
2022-08-05T19:46:30.997Z,44.49
2022-08-05T19:49:04.011Z,45.10
2022-08-05T19:52:05.439Z,45.27
2022-08-05T19:54:26.649Z,45.23
2022-08-05T19:56:57.954Z,45.66
2022-08-05T19:59:55.268Z,45.80
2022-08-05T20:02:12.912Z,45.99
2022-08-05T20:04:43.076Z,45.76
2022-08-05T20:07:14.190Z,45.76
2022-08-05T20:09:53.753Z,45.86
2022-08-05T20:12:20.873Z,46.23
2022-08-05T20:14:49.905Z,46.36
2022-08-05T20:17:19.826Z,46.22
2022-08-05T20:19:50.820Z,46.12
2022-08-05T20:22:24.976Z,46.38
2022-08-05T20:24:54.564Z,46.30
2022-08-05T20:27:26.384Z,46.64
2022-08-05T20:29:58.434Z,46.43
2022-08-05T20:32:27.292Z,46.52
2022-08-05T20:34:54.524Z,46.81
2022-08-05T20:38:04.998Z,46.59
2022-08-05T20:40:09.207Z,47.00
2022-08-05T20:42:35.998Z,47.09
2022-08-05T20:45:04.505Z,47.08
2022-08-05T20:47:33.300Z,47.06
2022-08-05T20:50:01.952Z,47.25
2022-08-05T20:52:29.840Z,47.11
2022-08-05T20:55:54.294Z,47.32
2022-08-05T20:57:45.061Z,46.98
2022-08-05T21:00:41.617Z,47.12
2022-08-05T21:03:06.191Z,47.16
2022-08-05T21:05:47.867Z,46.78
2022-08-05T21:08:26.522Z,46.87
2022-08-05T21:10:59.941Z,46.82
2022-08-05T21:13:48.186Z,47.10
2022-08-05T21:16:14.031Z,47.15
2022-08-05T21:18:42.960Z,47.51
2022-08-05T21:21:11.922Z,47.28
2022-08-05T21:23:38.991Z,47.54
2022-08-05T21:26:08.103Z,47.70
2022-08-05T21:28:40.372Z,47.75
2022-08-05T21:31:14.737Z,47.71
2022-08-05T21:33:43.279Z,47.50
2022-08-05T21:36:14.526Z,47.89
2022-08-05T21:38:54.864Z,47.21
2022-08-05T21:41:21.551Z,47.32
2022-08-05T21:43:51.014Z,47.19
2022-08-05T21:46:28.667Z,47.45
2022-08-05T21:48:56.601Z,47.38
2022-08-05T21:52:16.035Z,47.41
2022-08-05T21:54:10.157Z,47.54
2022-08-05T21:56:36.758Z,47.13
2022-08-05T21:59:24.137Z,47.14
2022-08-05T22:01:54.599Z,47.16
2022-08-05T22:04:25.367Z,47.21
2022-08-05T22:06:52.807Z,47.75
2022-08-05T22:09:21.099Z,47.69
2022-08-05T22:11:48.547Z,47.69
2022-08-05T22:14:33.200Z,47.90
2022-08-05T22:17:04.945Z,48.12
2022-08-05T22:20:00.250Z,47.51
2022-08-05T22:22:26.963Z,47.74
2022-08-05T22:25:21.342Z,48.13
2022-08-05T22:28:08.793Z,48.46
2022-08-05T22:30:44.150Z,48.24
2022-08-05T22:33:56.705Z,48.13
2022-08-05T22:36:14.647Z,48.48
2022-08-05T22:38:42.595Z,48.52
2022-08-05T22:41:10.309Z,48.79
2022-08-05T22:43:38.013Z,49.13
2022-08-05T22:46:13.127Z,48.76
2022-08-05T22:48:47.691Z,48.77
2022-08-05T22:51:22.443Z,48.98
2022-08-05T22:53:50.593Z,48.60
2022-08-05T22:56:30.279Z,48.59
2022-08-05T22:59:02.876Z,48.89
2022-08-05T23:02:04.577Z,48.64
2022-08-05T23:04:17.427Z,49.19
2022-08-05T23:06:44.061Z,48.73
2022-08-05T23:09:27.025Z,49.05
2022-08-05T23:11:58.814Z,49.32
2022-08-05T23:14:32.371Z,48.73
2022-08-05T23:17:24.251Z,49.08
2022-08-05T23:20:00.672Z,49.50
2022-08-05T23:22:29.646Z,49.37
2022-08-05T23:24:57.511Z,49.09
2022-08-05T23:27:31.203Z,49.29
2022-08-05T23:29:58.234Z,49.02
2022-08-05T23:32:27.081Z,49.07
2022-08-05T23:34:54.068Z,49.46
2022-08-05T23:37:20.666Z,48.97
2022-08-05T23:39:54.227Z,49.04
2022-08-05T23:42:23.536Z,49.51
2022-08-05T23:44:57.242Z,49.37
2022-08-05T23:47:24.804Z,49.08
2022-08-05T23:49:55.515Z,49.39
2022-08-05T23:52:30.562Z,49.56
2022-08-05T23:55:05.227Z,49.55
2022-08-05T23:57:34.334Z,49.75
